Lawrenceville, IL

10:16 AM CDT on August 29, 2016 (GMT -0500)
Benson Farms | | Change Station

Elev 436 ft 38.77 °N, 87.58 °W | Updated 4 minutes ago

Clear
Clear
81.4 °F
Feels Like 88 °F
N
0.0
Wind Variable Wind from NE
Gusts 4.0 mph

Today
High -- | Low -- °F
--% Chance of Precip.
Yesterday
High -- | Low -- °F
Precip. -- in
Pressure 30.22 in
Visibility 10.0 miles
Clouds Clear
Heat Index 88 °F
Dew Point 75 °F
Humidity 81%
Rainfall 0.00 in
Snow Depth Not available.
6:17 AM 7:24 PM
Waning Crescent, 8% visible
METAR KAJG 291455Z AUTO 13005KT 10SM CLR 27/21 A3022 RMK AO2 T02740214
Pressure 30.22 in
Visibility 10.0 miles
Clouds Clear
Heat Index 88 °F
Dew Point 75 °F
Humidity 81%
Rainfall 0.00 in
Snow Depth Not available.
6:17 AM 7:24 PM
Waning Crescent, 8% visible
METAR KAJG 291455Z AUTO 13005KT 10SM CLR 27/21 A3022 RMK AO2 T02740214

10-Day Weather Forecast

Almanac

Astronomy

Aug. 29, 2016 Rise Set
Actual Time
Civil Twilight
Nautical Twilight
Astronomical Twilight
Moon
Length of Visible Light
Length of Day
Tomorrow will be .
, % of the Moon is Illuminated

Today's Extremes

State Highs State Lows

Community

WunderPhotos

Upload Photos

1,935,841 photos uploaded!

WunderBlog® & News

Nearby

Air Quality

  Air Quality AQ Index Pollutant
Not available.

Snow Depth

Station Depth Elevation

Earthquake Activity

City Distance Mag. Time & Date
Minimum magnitude displayed is 2.5.

Coastal Water Temperatures

Place Temperature

Stations

Nearby Weather Stations

Station Location Temp. Windchill Dew Point Humidity Wind Precip. Elev Updated Type
                   

Watches & Warnings

There are currently no watches in effect.